Time;durP1;ratioP1;P1;durP2;ratioP2;P2;SDS_P1;SDS_P2;PMS_P1;PMS_P2;Temp;Humidity;BMP_temperature;BMP_pressure;BME280_temperature;BME280_humidity;BME280_pressure;Samples;Min_cycle;Max_cycle;Signal;HPM_P1;HPM_P2
2021/06/11 00:00:18;;;;;;;;;2.00;2.00;;;;;28.66;40.54;101730.81;5018029;28;45519;-47
2021/06/11 00:02:43;;;;;;;;;1.00;1.00;;;;;28.64;40.39;101719.97;5016851;28;45422;-49
2021/06/11 00:05:10;;;;;;;;;3.00;2.00;;;;;28.64;40.36;101727.41;5017852;28;45364;-44
2021/06/11 00:07:36;;;;;;;;;2.00;2.00;;;;;28.63;40.31;101728.44;5017482;28;45280;-48
2021/06/11 00:10:07;;;;;;;;;1.25;1.25;;;;;28.62;40.88;101732.25;5004393;28;45344;-47
2021/06/11 00:12:33;;;;;;;;;3.00;3.00;;;;;28.60;40.68;101732.47;4998279;28;45289;-46
2021/06/11 00:14:59;;;;;;;;;2.75;2.75;;;;;28.60;40.27;101734.41;5006702;28;45421;-46
2021/06/11 00:17:25;;;;;;;;;2.00;1.00;;;;;28.49;40.44;101722.78;5001735;28;45400;-44
2021/06/11 00:19:50;;;;;;;;;0.75;0.75;;;;;28.57;40.83;101734.78;5017573;28;45268;-45
2021/06/11 00:22:16;;;;;;;;;1.00;1.00;;;;;28.56;40.54;101733.06;5017959;28;45222;-47
2021/06/11 00:24:41;;;;;;;;;4.00;1.25;;;;;28.55;40.70;101731.34;5017701;28;45329;-46
2021/06/11 00:27:07;;;;;;;;;2.25;2.25;;;;;28.53;40.73;101727.91;5016358;28;47910;-46
2021/06/11 00:29:33;;;;;;;;;3.25;2.00;;;;;28.53;40.46;101725.16;5017680;28;45313;-46
2021/06/11 00:31:58;;;;;;;;;2.00;2.00;;;;;28.51;40.79;101734.50;5017612;28;45340;-48
2021/06/11 00:34:24;;;;;;;;;0.75;0.75;;;;;28.49;40.59;101733.84;5016603;28;45385;-44
2021/06/11 00:36:50;;;;;;;;;2.25;1.00;;;;;28.49;40.36;101733.00;5015842;28;47122;-46
2021/06/11 00:39:15;;;;;;;;;1.75;1.75;;;;;28.47;40.73;101735.09;5017502;28;45328;-44
2021/06/11 00:41:41;;;;;;;;;2.00;2.00;;;;;28.46;40.76;101734.25;5017632;28;45266;-48
2021/06/11 00:44:06;;;;;;;;;2.25;2.00;;;;;28.45;40.25;101729.78;5016116;28;45194;-46
2021/06/11 00:46:32;;;;;;;;;2.00;2.00;;;;;28.44;40.29;101728.06;5017384;28;45266;-49
2021/06/11 00:48:57;;;;;;;;;1.00;1.00;;;;;28.43;40.40;101733.75;5016730;28;45264;-47
2021/06/11 00:51:23;;;;;;;;;1.00;1.00;;;;;28.43;40.56;101736.53;5016128;28;45510;-45
2021/06/11 00:53:49;;;;;;;;;1.50;1.00;;;;;28.42;40.45;101727.41;5017375;28;45332;-44
2021/06/11 00:56:16;;;;;;;;;1.50;1.50;;;;;28.40;40.50;101731.41;5015858;28;45349;-47
2021/06/11 00:58:42;;;;;;;;;1.00;1.00;;;;;28.40;40.71;101728.66;5015518;28;45619;-46
2021/06/11 01:01:07;;;;;;;;;3.00;2.00;;;;;28.39;40.80;101726.94;5017120;28;45413;-44
2021/06/11 01:03:33;;;;;;;;;2.00;2.00;;;;;28.37;40.88;101726.28;5015613;28;45438;-44
2021/06/11 01:05:58;;;;;;;;;1.00;1.00;;;;;28.35;40.57;101724.56;5016853;28;45449;-43
2021/06/11 01:08:24;;;;;;;;;0.25;0.25;;;;;28.35;40.58;101730.09;5017203;28;45462;-44
2021/06/11 01:10:51;;;;;;;;;2.75;2.00;;;;;28.33;40.76;101732.19;4997185;28;45284;-44
2021/06/11 01:13:18;;;;;;;;;1.00;1.00;;;;;28.32;40.60;101722.19;4999719;28;45380;-44
2021/06/11 01:15:44;;;;;;;;;1.00;1.00;;;;;28.31;41.01;101722.38;5016749;28;46025;-44
2021/06/11 01:18:10;;;;;;;;;2.00;1.00;;;;;28.30;41.03;101726.19;5016704;28;45604;-43
2021/06/11 01:20:36;;;;;;;;;1.00;1.00;;;;;28.28;40.71;101718.09;5015673;28;45422;-44
2021/06/11 01:23:23;;;;;;;;;0.50;0.50;;;;;28.28;40.92;101725.53;5016974;28;45313;-45
2021/06/11 01:26:02;;;;;;;;;1.00;1.00;;;;;28.27;40.77;101726.56;5016728;28;45317;-44
2021/06/11 01:28:28;;;;;;;;;1.00;1.00;;;;;28.27;41.12;101721.06;5017004;28;45251;-43
2021/06/11 01:30:56;;;;;;;;;1.50;1.50;;;;;28.25;41.08;101720.38;5016777;28;45340;-44
2021/06/11 01:33:27;;;;;;;;;3.00;1.00;;;;;28.25;40.51;101726.78;5015229;28;45325;-45
2021/06/11 01:35:58;;;;;;;;;2.75;1.00;;;;;28.23;40.58;101720.59;5013593;28;45284;-44
2021/06/11 01:38:31;;;;;;;;;1.00;1.00;;;;;28.22;41.11;101720.75;5016663;28;45511;-43
2021/06/11 01:40:58;;;;;;;;;1.00;1.00;;;;;28.21;40.89;101722.69;5016532;28;45446;-44
2021/06/11 01:43:26;;;;;;;;;1.75;1.00;;;;;28.19;41.11;101724.78;5016571;28;45422;-44
2021/06/11 01:45:51;;;;;;;;;2.00;1.00;;;;;28.18;41.02;101718.41;5015923;28;45895;-44
2021/06/11 01:48:18;;;;;;;;;1.75;1.75;;;;;28.16;40.62;101715.00;5014970;28;45262;-44
2021/06/11 01:50:45;;;;;;;;;1.00;1.00;;;;;28.15;40.78;101717.94;5016518;28;45289;-44
2021/06/11 01:53:14;;;;;;;;;1.00;1.00;;;;;28.15;41.28;101720.69;5016597;28;45193;-44
2021/06/11 01:55:42;;;;;;;;;0.50;0.50;;;;;28.10;40.95;101715.75;5016227;28;45459;-44
2021/06/11 01:58:09;;;;;;;;;1.00;0.00;;;;;28.11;41.09;101711.09;5016399;28;45340;-45
2021/06/11 02:00:35;;;;;;;;;0.75;0.75;;;;;28.10;40.88;101715.75;5014999;28;45290;-43
2021/06/11 02:03:02;;;;;;;;;1.00;1.00;;;;;28.06;41.13;101708.84;5016074;28;45360;-44
2021/06/11 02:05:28;;;;;;;;;1.00;1.00;;;;;28.08;41.27;101708.69;5016162;28;45519;-44
2021/06/11 02:07:55;;;;;;;;;1.00;1.00;;;;;28.08;41.01;101716.97;5014870;28;45596;-45
2021/06/11 02:10:23;;;;;;;;;2.00;1.00;;;;;28.07;40.71;101712.50;5009528;28;45463;-44
2021/06/11 02:12:50;;;;;;;;;1.00;1.00;;;;;28.04;41.06;101709.06;5016266;28;45314;-44
2021/06/11 02:15:17;;;;;;;;;1.50;1.50;;;;;28.04;41.21;101710.97;5002231;28;45357;-43
2021/06/11 02:17:45;;;;;;;;;1.00;0.25;;;;;28.03;41.07;101709.28;5015813;28;45403;-43
2021/06/11 02:20:14;;;;;;;;;0.75;0.75;;;;;28.02;41.27;101699.28;5015865;28;45431;-45
2021/06/11 02:22:42;;;;;;;;;1.00;0.75;;;;;27.98;41.32;101690.50;5016191;28;45353;-44
2021/06/11 02:25:08;;;;;;;;;1.00;1.00;;;;;28.00;40.70;101701.38;5015776;28;45526;-44
2021/06/11 02:27:36;;;;;;;;;1.00;1.00;;;;;27.98;41.13;101704.31;5015988;28;45246;-44
2021/06/11 02:30:05;;;;;;;;;1.25;1.25;;;;;27.96;41.16;101695.38;5015538;28;45326;-45
2021/06/11 02:32:34;;;;;;;;;1.00;1.00;;;;;27.98;41.04;101700.69;5015932;28;45259;-43
2021/06/11 02:35:01;;;;;;;;;2.25;1.00;;;;;27.96;41.25;101698.16;5015812;28;45372;-44
2021/06/11 02:37:28;;;;;;;;;1.50;1.00;;;;;27.94;41.37;101691.97;5015927;28;45574;-44
2021/06/11 02:39:53;;;;;;;;;0.00;0.00;;;;;27.94;41.11;101699.38;5015899;28;45376;-44
2021/06/11 02:42:19;;;;;;;;;0.25;0.00;;;;;27.92;41.47;101694.06;5014611;28;45635;-44
2021/06/11 02:44:50;;;;;;;;;0.25;0.00;;;;;27.92;41.28;101690.41;5014033;28;45865;-44
2021/06/11 02:47:21;;;;;;;;;2.75;2.00;;;;;27.88;41.07;101693.59;5015870;28;45538;-44
2021/06/11 02:50:01;;;;;;;;;0.00;0.00;;;;;27.89;40.88;101692.53;5015886;28;45416;-44
2021/06/11 02:52:29;;;;;;;;;1.00;1.00;;;;;27.88;41.02;101690.81;5015824;28;45188;-44
2021/06/11 02:55:00;;;;;;;;;1.00;1.00;;;;;27.87;41.54;101689.13;5014310;28;46216;-43
2021/06/11 02:57:32;;;;;;;;;1.00;1.00;;;;;27.85;41.62;101693.09;5014164;28;45651;-44
2021/06/11 03:00:08;;;;;;;;;0.00;0.00;;;;;27.85;41.33;101690.31;5018489;28;45414;-44
2021/06/11 03:02:40;;;;;;;;;1.00;1.00;;;;;27.83;40.93;101693.28;5019165;28;45321;-46
2021/06/11 03:05:09;;;;;;;;;1.00;1.00;;;;;27.83;41.43;101686.91;5019092;28;45475;-45
2021/06/11 03:07:36;;;;;;;;;1.00;1.00;;;;;27.81;41.05;101678.00;5018939;28;45641;-50
2021/06/11 03:10:06;;;;;;;;;0.00;0.00;;;;;27.81;41.20;101683.50;5017114;28;45513;-46
2021/06/11 03:12:34;;;;;;;;;1.00;1.00;;;;;27.78;41.03;101683.88;5018961;28;45409;-48
2021/06/11 03:15:00;;;;;;;;;1.25;1.25;;;;;27.76;41.58;101684.06;5018001;28;45268;-49
2021/06/11 03:17:33;;;;;;;;;2.00;1.00;;;;;27.77;41.17;101677.50;5018798;28;45329;-48
2021/06/11 03:20:06;;;;;;;;;0.00;0.00;;;;;27.76;40.88;101675.78;5018613;28;45274;-49
2021/06/11 03:22:37;;;;;;;;;0.00;0.00;;;;;27.76;41.37;101681.28;5017555;28;45411;-46
2021/06/11 03:25:07;;;;;;;;;2.00;1.00;;;;;27.74;41.61;101675.97;5017260;28;45701;-46
2021/06/11 03:27:41;;;;;;;;;0.25;0.00;;;;;27.73;41.43;101677.03;5015695;28;45456;-46
2021/06/11 03:30:09;;;;;;;;;1.00;1.00;;;;;27.72;41.00;101674.47;4998702;28;45267;-49
2021/06/11 03:32:45;;;;;;;;;1.00;1.00;;;;;27.71;41.08;101681.88;4997432;28;45429;-48
2021/06/11 03:35:18;;;;;;;;;0.00;0.00;;;;;27.69;41.35;101685.88;4998828;28;45408;-47
2021/06/11 03:37:47;;;;;;;;;1.00;1.00;;;;;27.69;41.15;101686.72;4997518;28;45329;-49
2021/06/11 03:40:19;;;;;;;;;0.00;0.00;;;;;27.67;41.19;101680.56;4998802;28;45330;-50
2021/06/11 03:42:45;;;;;;;;;1.00;1.00;;;;;27.66;41.79;101678.84;4998444;28;45448;-49
2021/06/11 03:45:11;;;;;;;;;0.50;0.50;;;;;27.66;41.25;101683.50;4998248;28;45448;-46
2021/06/11 03:47:38;;;;;;;;;1.75;0.75;;;;;27.64;41.95;101680.94;5013588;28;45505;-44
2021/06/11 03:50:05;;;;;;;;;1.00;1.00;;;;;27.65;41.23;101690.06;5018509;28;45236;-48
2021/06/11 03:52:33;;;;;;;;;0.75;0.00;;;;;27.64;41.50;101693.88;5017140;28;45549;-45
2021/06/11 03:55:08;;;;;;;;;0.50;0.50;;;;;27.62;41.38;101688.56;5017777;28;46121;-47
2021/06/11 03:57:38;;;;;;;;;0.00;0.00;;;;;27.60;41.92;101690.63;5016581;28;45612;-47
2021/06/11 04:00:04;;;;;;;;;1.00;1.00;;;;;27.61;41.82;101691.50;5018107;28;45441;-50
2021/06/11 04:02:30;;;;;;;;;2.00;0.75;;;;;27.59;41.28;101686.16;5018342;28;45222;-47
2021/06/11 04:04:57;;;;;;;;;1.50;1.50;;;;;27.59;41.31;101691.69;5016375;28;46025;-47
2021/06/11 04:07:37;;;;;;;;;0.50;0.50;;;;;27.57;41.55;101686.38;5017942;28;45364;-46
2021/06/11 04:10:12;;;;;;;;;1.00;1.00;;;;;27.56;41.90;101690.16;5016091;28;45439;-48
2021/06/11 04:12:43;;;;;;;;;0.75;0.75;;;;;27.55;41.48;101682.94;5017973;28;45254;-49
2021/06/11 04:15:11;;;;;;;;;0.00;0.00;;;;;27.56;41.83;101690.16;5017720;28;45467;-47
2021/06/11 04:17:41;;;;;;;;;1.00;1.00;;;;;27.55;41.66;101693.09;5017929;28;45685;-48
2021/06/11 04:20:12;;;;;;;;;1.00;1.00;;;;;27.54;41.65;101694.19;5017817;28;45408;-47
2021/06/11 04:22:44;;;;;;;;;1.50;1.50;;;;;27.53;41.32;101689.69;5016683;28;45200;-47
2021/06/11 04:25:12;;;;;;;;;0.00;0.00;;;;;27.51;42.00;101684.34;5017680;28;45438;-46
2021/06/11 04:27:39;;;;;;;;;1.00;1.00;;;;;27.51;41.64;101686.28;5016268;28;45578;-49
2021/06/11 04:30:07;;;;;;;;;1.25;1.25;;;;;27.51;41.55;101694.53;5017813;28;45317;-48
2021/06/11 04:32:33;;;;;;;;;0.00;0.00;;;;;27.49;41.44;101693.88;5017792;28;45343;-46
2021/06/11 04:34:58;;;;;;;;;0.00;0.00;;;;;27.50;41.71;101687.31;5017471;28;45557;-48
2021/06/11 04:37:24;;;;;;;;;1.00;1.00;;;;;27.46;41.66;101688.72;5017608;28;45348;-45
2021/06/11 04:39:50;;;;;;;;;0.00;0.00;;;;;27.46;41.77;101694.25;5016393;28;45273;-46
2021/06/11 04:42:16;;;;;;;;;0.00;0.00;;;;;27.46;41.70;101686.84;5017303;28;45405;-46
2021/06/11 04:44:41;;;;;;;;;1.00;0.25;;;;;27.43;41.95;101687.19;5017024;28;45273;-45
2021/06/11 04:47:07;;;;;;;;;0.25;0.25;;;;;27.45;41.89;101690.66;5017280;28;45388;-45
2021/06/11 04:49:32;;;;;;;;;0.25;0.25;;;;;27.44;41.45;101695.25;5017452;28;45222;-50
2021/06/11 04:51:58;;;;;;;;;0.25;0.00;;;;;27.44;41.46;101692.50;5017517;28;45238;-49
2021/06/11 04:54:24;;;;;;;;;2.00;1.00;;;;;27.43;41.40;101696.31;5015877;28;46281;-46
2021/06/11 04:56:49;;;;;;;;;0.00;0.00;;;;;27.42;41.74;101693.75;5016775;28;45376;-44
2021/06/11 04:59:15;;;;;;;;;0.50;0.50;;;;;27.41;41.80;101695.63;5016738;28;45286;-46
2021/06/11 05:01:40;;;;;;;;;1.00;1.00;;;;;27.42;41.75;101697.34;5015949;28;45403;-47
2021/06/11 05:04:06;;;;;;;;;1.25;0.50;;;;;27.42;41.72;101699.25;5017190;28;45978;-47
2021/06/11 05:06:31;;;;;;;;;0.50;0.50;;;;;27.41;41.75;101697.53;5016883;28;45519;-49
2021/06/11 05:08:57;;;;;;;;;0.00;0.00;;;;;27.41;41.57;101701.13;5016812;28;45401;-48
2021/06/11 05:11:22;;;;;;;;;1.25;1.25;;;;;27.40;41.62;101698.59;5015653;28;45321;-49
2021/06/11 05:13:48;;;;;;;;;1.00;1.00;;;;;27.39;41.78;101700.50;5015407;28;46424;-46
2021/06/11 05:16:13;;;;;;;;;1.00;1.00;;;;;27.38;42.13;101704.31;5012126;28;45468;-48
2021/06/11 05:18:39;;;;;;;;;0.50;0.50;;;;;27.39;42.13;101710.66;4997167;28;45321;-48
2021/06/11 05:21:05;;;;;;;;;0.00;0.00;;;;;27.37;41.69;101716.38;4996483;28;45342;-46
2021/06/11 05:23:31;;;;;;;;;1.00;1.00;;;;;27.38;41.62;101719.97;4997149;28;45484;-49
2021/06/11 05:25:57;;;;;;;;;1.00;1.00;;;;;27.36;41.65;101709.16;4996816;28;45494;-47
2021/06/11 05:28:23;;;;;;;;;0.00;0.00;;;;;27.36;41.54;101714.66;4997054;28;45669;-47
2021/06/11 05:30:50;;;;;;;;;1.00;1.00;;;;;27.36;42.18;101720.19;4997095;28;45383;-47
2021/06/11 05:33:16;;;;;;;;;1.75;1.75;;;;;27.36;42.16;101722.94;4996959;28;45440;-48
2021/06/11 05:35:42;;;;;;;;;0.50;0.50;;;;;27.37;42.29;101721.88;4995483;28;45435;-45
2021/06/11 05:38:07;;;;;;;;;1.25;1.25;;;;;27.35;41.81;101725.84;5006383;28;45368;-50
2021/06/11 05:40:33;;;;;;;;;0.00;0.00;;;;;27.37;42.24;101729.28;5016424;28;45465;-47
2021/06/11 05:42:59;;;;;;;;;1.50;1.50;;;;;27.36;41.92;101731.19;5016467;28;45896;-46
2021/06/11 05:45:26;;;;;;;;;2.00;1.50;;;;;27.36;41.54;101725.69;5016248;28;45247;-46
2021/06/11 05:47:51;;;;;;;;;3.00;2.00;;;;;27.34;41.82;101733.28;5016636;28;45360;-45
2021/06/11 05:50:17;;;;;;;;;1.00;1.00;;;;;27.35;41.86;101732.25;5016211;28;45255;-47
2021/06/11 05:52:43;;;;;;;;;1.50;1.50;;;;;27.35;42.01;101737.75;5014999;28;45405;-47
2021/06/11 05:55:09;;;;;;;;;1.00;1.00;;;;;27.35;41.77;101735.00;5016125;28;45160;-46
2021/06/11 05:57:35;;;;;;;;;2.00;1.00;;;;;27.32;41.91;101735.38;5014554;28;45398;-49
2021/06/11 06:00:01;;;;;;;;;1.75;1.00;;;;;27.35;42.14;101743.28;5014703;28;45244;-47
2021/06/11 06:02:27;;;;;;;;;3.25;2.00;;;;;27.34;41.82;101738.81;5015981;28;46063;-45
2021/06/11 06:04:52;;;;;;;;;1.00;1.00;;;;;27.35;41.92;101742.41;5016314;28;45309;-44
2021/06/11 06:07:18;;;;;;;;;1.00;1.00;;;;;27.35;42.17;101739.66;5015198;28;45453;-44
2021/06/11 06:09:44;;;;;;;;;2.00;2.00;;;;;27.34;41.99;101737.94;5004931;28;45370;-47
2021/06/11 06:12:11;;;;;;;;;2.00;2.00;;;;;27.33;41.92;101739.84;5008867;28;46076;-48
2021/06/11 06:14:37;;;;;;;;;3.00;1.75;;;;;27.34;42.00;101747.06;5015056;28;45620;-49
2021/06/11 06:17:03;;;;;;;;;2.00;2.00;;;;;27.34;41.71;101748.97;5043159;28;45353;-44
2021/06/11 06:19:28;;;;;;;;;1.50;1.50;;;;;27.35;42.00;101756.19;5014954;28;45415;-46
2021/06/11 06:21:54;;;;;;;;;1.00;1.00;;;;;27.35;41.88;101751.53;5013718;28;45257;-44
2021/06/11 06:24:20;;;;;;;;;1.00;1.00;;;;;27.35;42.34;101754.31;5013863;28;45325;-44
2021/06/11 06:26:45;;;;;;;;;1.00;1.00;;;;;27.36;41.82;101745.00;5015075;28;45396;-43
2021/06/11 06:29:11;;;;;;;;;2.75;2.75;;;;;27.36;41.82;101752.38;5015240;28;45238;-44
2021/06/11 06:31:37;;;;;;;;;2.75;2.00;;;;;27.36;42.34;101764.28;5015094;28;45370;-46
2021/06/11 06:34:03;;;;;;;;;5.50;1.25;;;;;27.37;42.53;101757.75;5016392;28;45402;-48
2021/06/11 06:36:29;;;;;;;;;4.00;2.00;;;;;27.36;42.35;101761.53;5018944;28;45432;-45
2021/06/11 06:38:57;;;;;;;;;1.00;1.00;;;;;27.37;42.12;101763.25;5019210;28;45484;-44
2021/06/11 06:41:23;;;;;;;;;0.25;0.25;;;;;27.36;41.93;101758.78;5019336;28;46118;-44
2021/06/11 06:43:48;;;;;;;;;1.50;1.50;;;;;27.36;42.05;101758.78;5017961;28;45557;-44
2021/06/11 06:46:16;;;;;;;;;3.75;1.00;;;;;27.38;42.11;101762.22;5019396;28;45353;-50
2021/06/11 06:48:42;;;;;;;;;2.00;2.00;;;;;27.38;41.81;101761.34;5019347;28;45296;-44
2021/06/11 06:51:09;;;;;;;;;4.25;2.00;;;;;27.36;42.32;101756.03;5019110;28;46119;-45
2021/06/11 06:53:35;;;;;;;;;2.00;1.50;;;;;27.39;41.92;101757.53;5019179;28;45510;-44
2021/06/11 06:56:00;;;;;;;;;1.75;1.50;;;;;27.40;41.85;101765.59;5019363;28;45447;-45
2021/06/11 06:58:26;;;;;;;;;1.75;1.75;;;;;27.40;42.01;101764.75;5017380;28;45333;-47
2021/06/11 07:00:51;;;;;;;;;2.75;2.25;;;;;27.39;42.12;101766.69;5018951;28;45228;-49
2021/06/11 07:03:17;;;;;;;;;1.50;1.50;;;;;27.41;42.31;101763.72;5018888;28;45430;-46
2021/06/11 07:05:42;;;;;;;;;1.00;1.00;;;;;27.41;41.84;101764.56;5017318;28;45236;-46
2021/06/11 07:08:08;;;;;;;;;1.50;1.00;;;;;27.41;42.19;101764.56;5018840;28;45167;-47
2021/06/11 07:10:33;;;;;;;;;1.25;1.25;;;;;27.42;42.26;101759.94;5017126;28;45503;-47
2021/06/11 07:12:59;;;;;;;;;1.00;1.00;;;;;27.42;41.73;101769.03;5017331;28;45326;-49
2021/06/11 07:15:24;;;;;;;;;2.00;2.00;;;;;27.42;42.37;101758.00;5018779;28;45229;-46
2021/06/11 07:17:55;;;;;;;;;2.50;1.00;;;;;27.44;42.05;101766.97;5018780;28;45297;-44
2021/06/11 07:20:21;;;;;;;;;4.00;2.25;;;;;27.43;41.92;101759.72;5018532;28;45685;-45
2021/06/11 07:22:46;;;;;;;;;1.00;1.00;;;;;27.45;42.18;101770.63;5017466;28;45379;-47
2021/06/11 07:25:12;;;;;;;;;1.00;1.00;;;;;27.46;41.64;101764.06;5018277;28;45392;-46
2021/06/11 07:27:37;;;;;;;;;1.00;1.00;;;;;27.46;41.91;101766.81;5018465;28;45282;-44
2021/06/11 07:30:06;;;;;;;;;2.75;1.00;;;;;27.46;42.03;101764.06;5018379;28;46294;-48
2021/06/11 07:32:32;;;;;;;;;1.00;1.00;;;;;27.48;41.92;101772.97;5018585;28;45648;-49
2021/06/11 07:34:58;;;;;;;;;2.00;1.25;;;;;27.44;42.07;101760.59;5018156;28;45381;-46
2021/06/11 07:37:24;;;;;;;;;1.00;1.00;;;;;27.48;42.09;101761.94;5018724;28;45305;-44
2021/06/11 07:39:50;;;;;;;;;1.75;1.00;;;;;27.49;41.83;101765.59;5018119;28;45915;-47
2021/06/11 07:42:15;;;;;;;;;2.00;2.00;;;;;27.50;42.07;101764.53;5018493;28;45399;-44
2021/06/11 07:44:41;;;;;;;;;1.00;0.00;;;;;27.51;41.89;101763.50;5017855;28;45313;-44
2021/06/11 07:47:08;;;;;;;;;3.00;1.50;;;;;27.51;42.00;101766.25;5018464;28;45344;-46
2021/06/11 07:49:33;;;;;;;;;1.50;1.50;;;;;27.51;41.95;101764.34;5018144;28;46098;-43
2021/06/11 07:51:59;;;;;;;;;1.25;1.25;;;;;27.50;42.02;101765.38;5016904;28;45285;-46
2021/06/11 07:54:25;;;;;;;;;1.50;1.50;;;;;27.52;41.97;101766.06;5018287;28;45235;-47
2021/06/11 07:56:51;;;;;;;;;1.00;1.00;;;;;27.52;42.07;101756.94;5018285;28;45386;-43
2021/06/11 07:59:16;;;;;;;;;1.75;1.75;;;;;27.52;41.97;101773.50;5012653;28;46922;-46
2021/06/11 08:01:43;;;;;;;;;1.25;1.25;;;;;27.53;41.63;101776.03;4997268;28;45282;-42
2021/06/11 08:04:12;;;;;;;;;4.50;2.00;;;;;27.54;42.24;101772.25;5011021;28;45994;-42
2021/06/11 08:06:38;;;;;;;;;2.25;1.75;;;;;27.54;42.04;101774.16;5016593;28;45608;-41
2021/06/11 08:09:04;;;;;;;;;3.25;2.25;;;;;27.53;41.67;101776.03;5012055;28;45519;-43
2021/06/11 08:11:30;;;;;;;;;1.00;1.00;;;;;27.53;41.81;101775.19;5016658;28;45459;-45
2021/06/11 08:13:56;;;;;;;;;2.00;2.00;;;;;27.53;42.35;101776.03;5017313;28;45487;-42
2021/06/11 08:16:23;;;;;;;;;2.00;1.25;;;;;27.54;42.25;101782.44;5002095;28;45601;-46
2021/06/11 08:18:49;;;;;;;;;1.00;1.00;;;;;27.52;42.43;101777.09;4997991;28;45443;-42
2021/06/11 08:21:14;;;;;;;;;1.00;1.00;;;;;27.50;42.34;101775.56;4997970;28;45385;-45
2021/06/11 08:23:41;;;;;;;;;4.25;2.00;;;;;27.50;41.91;101781.09;5014948;28;45566;-44
2021/06/11 08:26:07;;;;;;;;;3.00;2.00;;;;;27.48;41.63;101772.97;5017249;28;45407;-41
2021/06/11 08:28:33;;;;;;;;;1.75;1.00;;;;;27.52;41.94;101779.00;5017400;28;45367;-42
2021/06/11 08:31:01;;;;;;;;;2.00;2.00;;;;;27.52;41.96;101782.59;5017537;28;45403;-42
2021/06/11 08:33:27;;;;;;;;;0.00;0.00;;;;;27.53;42.16;101784.31;5017590;28;45379;-42
2021/06/11 08:35:52;;;;;;;;;1.00;1.00;;;;;27.52;42.01;101784.53;5016079;28;45460;-41
2021/06/11 08:38:19;;;;;;;;;1.25;1.25;;;;;27.48;42.09;101777.66;5015995;28;45814;-43
2021/06/11 08:40:46;;;;;;;;;2.00;2.00;;;;;27.44;41.47;101791.78;5016750;28;45428;-43
2021/06/11 08:43:15;;;;;;;;;2.00;1.00;;;;;27.43;41.63;101789.22;5016534;28;45444;-43
2021/06/11 08:45:42;;;;;;;;;1.00;1.00;;;;;27.41;42.21;101789.38;5017373;28;45251;-43
2021/06/11 08:48:08;;;;;;;;;3.25;1.75;;;;;27.40;42.17;101787.66;5017005;28;45373;-41
2021/06/11 08:50:34;;;;;;;;;2.00;2.00;;;;;27.40;41.82;101782.16;5015516;28;45404;-42
2021/06/11 08:53:03;;;;;;;;;2.50;2.50;;;;;27.41;41.56;101781.13;5017158;28;45424;-42
2021/06/11 08:55:29;;;;;;;;;4.00;2.00;;;;;27.44;41.52;101777.16;5016462;28;45333;-42
2021/06/11 08:57:55;;;;;;;;;4.00;3.25;;;;;27.42;41.66;101779.22;5016936;28;45573;-42
2021/06/11 09:00:21;;;;;;;;;2.25;2.25;;;;;27.44;41.94;101785.41;5017222;28;45685;-43
2021/06/11 09:03:11;;;;;;;;;2.00;0.50;;;;;27.44;41.93;101783.50;5016850;28;45357;-43
2021/06/11 09:05:39;;;;;;;;;2.00;2.00;;;;;27.46;41.51;101774.22;5017187;28;45371;-45
2021/06/11 09:08:23;;;;;;;;;1.00;1.00;;;;;27.46;41.39;101782.50;5016857;28;46026;-43
2021/06/11 09:10:51;;;;;;;;;4.75;3.00;;;;;27.44;41.36;101775.22;4997074;28;45491;-43
2021/06/11 09:13:28;;;;;;;;;2.25;1.25;;;;;27.42;41.36;101776.47;4997156;28;45550;-43
2021/06/11 09:16:25;;;;;;;;;4.50;1.75;;;;;27.43;41.37;101775.44;5028546;28;45382;-45
2021/06/11 09:18:52;;;;;;;;;2.75;2.00;;;;;27.44;41.29;101772.47;4996879;28;45984;-44
2021/06/11 09:21:33;;;;;;;;;1.00;1.00;;;;;27.46;41.49;101774.22;4997117;28;45382;-46
2021/06/11 09:24:14;;;;;;;;;0.75;0.50;;;;;27.50;41.97;101773.66;5016066;28;45420;-43
2021/06/11 09:26:39;;;;;;;;;4.50;4.50;;;;;27.51;41.54;101772.63;5016674;28;45319;-43
2021/06/11 09:29:21;;;;;;;;;4.00;1.75;;;;;27.55;41.25;101778.59;5016405;28;45957;-44
2021/06/11 09:31:47;;;;;;;;;4.50;3.75;;;;;27.59;41.28;101769.78;5015526;28;45508;-43
2021/06/11 09:34:26;;;;;;;;;3.00;2.50;;;;;27.62;41.24;101756.63;5016773;28;45238;-42
2021/06/11 09:37:05;;;;;;;;;2.25;2.25;;;;;27.66;41.31;101757.97;5016493;28;45293;-43
2021/06/11 09:39:50;;;;;;;;;2.00;2.00;;;;;27.70;41.56;101751.88;5016536;28;46243;-42
2021/06/11 09:42:21;;;;;;;;;3.00;2.00;;;;;27.73;41.28;101757.03;5015973;28;45742;-42
2021/06/11 09:44:58;;;;;;;;;4.00;2.75;;;;;27.77;41.05;101759.44;5016375;28;45313;-44
2021/06/11 09:47:37;;;;;;;;;2.75;2.00;;;;;27.78;40.77;101747.34;5016437;28;45293;-44
2021/06/11 09:50:06;;;;;;;;;3.25;3.25;;;;;27.81;41.37;101752.50;5016183;28;45980;-45
2021/06/11 09:52:35;;;;;;;;;2.75;2.75;;;;;27.82;41.03;101751.44;5016203;28;45754;-42
2021/06/11 09:55:06;;;;;;;;;1.00;1.00;;;;;27.84;41.08;101750.19;5016606;28;45329;-41
2021/06/11 09:57:36;;;;;;;;;2.00;1.50;;;;;27.87;41.08;101749.81;5016390;28;45466;-43
2021/06/11 10:00:04;;;;;;;;;1.75;1.75;;;;;27.87;41.12;101740.66;5015814;28;45246;-42
2021/06/11 10:02:31;;;;;;;;;3.75;2.00;;;;;27.92;41.27;101743.72;5015998;28;45210;-44
2021/06/11 10:04:57;;;;;;;;;1.50;1.00;;;;;27.95;40.51;101750.75;5016123;28;45398;-43
2021/06/11 10:07:24;;;;;;;;;3.75;2.00;;;;;27.96;41.19;101749.72;5014556;28;45425;-46
2021/06/11 10:09:50;;;;;;;;;1.75;1.75;;;;;27.97;40.92;101748.66;5004332;28;46155;-46
2021/06/11 10:12:15;;;;;;;;;2.00;2.00;;;;;27.99;40.92;101750.19;4995064;28;45273;-43
2021/06/11 10:14:41;;;;;;;;;2.00;2.00;;;;;28.02;40.61;101748.97;4996499;28;45350;-41
2021/06/11 10:17:07;;;;;;;;;1.50;1.50;;;;;28.04;40.38;101749.63;5016036;28;45316;-45
2021/06/11 10:19:35;;;;;;;;;2.00;2.00;;;;;28.05;40.81;101752.19;5014642;28;45548;-43
2021/06/11 10:22:01;;;;;;;;;3.50;2.75;;;;;28.02;40.97;101741.53;5014437;28;45360;-49
2021/06/11 10:24:27;;;;;;;;;3.25;3.00;;;;;28.07;40.63;101742.84;5016092;28;45389;-48
2021/06/11 10:26:53;;;;;;;;;2.75;2.75;;;;;28.08;40.84;101744.56;5015990;28;45608;-45
2021/06/11 10:29:20;;;;;;;;;4.75;2.00;;;;;28.10;40.47;101740.59;5015601;28;45382;-44
2021/06/11 10:31:47;;;;;;;;;2.00;2.00;;;;;28.10;40.82;101746.13;5015826;28;45533;-48
2021/06/11 10:34:13;;;;;;;;;3.75;3.75;;;;;28.12;40.52;101740.38;5015958;28;45220;-44
2021/06/11 10:36:45;;;;;;;;;4.00;3.00;;;;;28.14;40.65;101739.16;5015995;28;45306;-43
2021/06/11 10:39:12;;;;;;;;;3.50;3.00;;;;;28.17;40.23;101735.16;4999668;28;46020;-41
2021/06/11 10:42:07;;;;;;;;;2.25;2.25;;;;;28.18;40.49;101731.34;5013373;28;45542;-41
2021/06/11 10:44:42;;;;;;;;;4.00;3.00;;;;;28.19;40.49;101733.06;5013449;28;45397;-43
2021/06/11 10:47:16;;;;;;;;;2.00;1.00;;;;;28.20;40.62;101727.34;5015407;28;45231;-42
2021/06/11 10:50:05;;;;;;;;;3.25;2.25;;;;;28.23;40.37;101731.63;5013320;28;46347;-44
2021/06/11 10:52:50;;;;;;;;;5.00;3.00;;;;;28.24;40.09;101730.59;5015159;28;45609;-43
2021/06/11 10:55:19;;;;;;;;;4.00;4.00;;;;;28.27;40.33;101726.56;5014778;28;45281;-45
2021/06/11 10:57:50;;;;;;;;;2.75;2.75;;;;;28.28;40.10;101722.75;5014876;28;45487;-44
2021/06/11 11:00:21;;;;;;;;;2.00;2.00;;;;;28.30;40.11;101727.03;5012364;28;45329;-42
2021/06/11 11:02:52;;;;;;;;;2.00;2.00;;;;;28.32;40.19;101733.22;4994649;28;45671;-43
2021/06/11 11:05:31;;;;;;;;;3.75;3.75;;;;;28.33;40.33;101734.94;5005366;28;45559;-41
2021/06/11 11:07:59;;;;;;;;;3.00;3.00;;;;;28.34;39.82;101730.25;4995061;28;45516;-42
2021/06/11 11:10:42;;;;;;;;;2.25;2.25;;;;;28.35;40.18;101718.16;5010932;28;45490;-42
2021/06/11 11:13:09;;;;;;;;;4.25;4.00;;;;;28.38;40.24;101726.06;5013521;28;45428;-43
2021/06/11 11:15:47;;;;;;;;;3.00;3.00;;;;;28.40;40.08;101715.69;5003604;28;45456;-43
2021/06/11 11:18:25;;;;;;;;;3.50;3.00;;;;;28.41;39.92;101711.00;4995265;28;45433;-41
2021/06/11 11:20:54;;;;;;;;;2.50;2.50;;;;;28.42;39.91;101713.59;4997734;28;46504;-41
2021/06/11 11:23:26;;;;;;;;;3.00;3.00;;;;;28.43;39.81;101709.78;5009401;28;45239;-41
2021/06/11 11:25:56;;;;;;;;;3.00;2.00;;;;;28.45;40.12;101707.69;5017201;28;45380;-41
2021/06/11 11:28:25;;;;;;;;;3.25;2.50;;;;;28.45;39.68;101710.44;5017780;28;45257;-41